Date,TemperatureHighF,TemperatureAvgF,TemperatureLowF,DewpointHighF,DewpointAvgF,DewpointLowF,HumidityHigh,HumidityAvg,HumidityLow,PressureMaxIn,PressureMinIn,WindSpeedMaxMPH,WindSpeedAvgMPH,GustSpeedMaxMPH,PrecipitationSumIn
2013-3-1,38,34,32,30,26,24,71,71,71,30.09,30.01,9,2,9,0.06
2013-3-2,36,31,29,25,22,16,71,67,57,30.18,30.06,14,0,14,0.01
2013-3-3,46,34,19,22,18,11,71,53,33,30.17,30.03,11,2,11,0.00
2013-3-4,62,50,36,40,27,16,65,41,32,30.06,29.69,21,7,21,0.06
2013-3-5,51,43,35,42,31,15,71,63,43,30.07,29.70,21,5,21,0.27
2013-3-6,45,36,25,26,21,16,69,54,44,30.30,30.07,17,4,17,0.00
2013-3-7,50,36,24,28,22,16,71,58,41,30.37,30.26,11,2,11,0.00
2013-3-8,62,43,26,31,24,18,71,49,24,30.39,30.18,12,3,12,0.00
2013-3-9,70,56,47,36,30,23,43,36,27,30.19,29.88,17,6,17,0.00
2013-3-10,66,58,51,50,41,31,71,54,41,29.90,29.69,27,8,27,0.45
2013-3-11,52,42,34,43,31,22,71,64,55,29.99,29.73,21,7,21,0.01
2013-3-12,56,40,25,30,24,17,71,54,31,30.14,29.97,13,3,13,0.00
2013-3-13,48,38,27,25,19,13,59,46,33,30.38,30.14,14,4,14,0.00
2013-3-14,54,39,22,27,20,12,69,49,31,30.39,30.09,13,4,13,0.00
2013-3-15,78,58,37,50,39,22,69,50,35,30.09,29.77,18,6,18,0.00
2013-3-16,75,62,50,52,44,36,64,52,43,29.90,29.74,27,8,27,0.00
2013-3-17,53,46,42,44,36,33,71,69,59,29.94,29.63,16,6,16,0.06
2013-3-18,55,46,36,46,37,27,71,70,64,29.98,29.59,14,3,14,0.44
2013-3-19,56,43,30,32,24,17,71,49,25,30.17,29.97,13,3,13,0.00
2013-3-20,50,39,28,32,22,13,71,51,37,30.19,30.01,17,4,17,0.00
2013-3-21,45,34,18,18,14,8,70,45,28,30.08,29.91,10,2,10,0.00
2013-3-22,48,42,36,24,20,16,48,42,38,29.98,29.88,11,4,11,0.00
2013-3-23,57,48,42,39,32,22,71,54,43,29.94,29.66,14,5,14,0.05
2013-3-24,50,43,35,41,33,22,71,68,58,29.80,29.40,31,9,31,0.20
2013-3-25,41,35,32,24,22,20,69,58,49,30.15,29.79,24,7,24,0.00
2013-3-26,45,36,28,29,22,17,71,59,42,30.31,30.15,14,3,14,0.01
2013-3-27,57,40,23,28,22,15,71,52,28,30.37,30.25,11,2,11,0.00
2013-3-28,65,50,36,33,29,23,64,46,28,30.32,30.19,11,2,11,0.00
2013-3-29,58,50,42,43,36,28,71,59,41,30.24,30.13,14,4,14,0.11
2013-3-30,53,45,38,44,36,30,71,71,71,30.16,29.89,11,3,11,0.18
2013-3-31,66,56,44,62,54,44,99,91,70,29.92,29.83,4,1,10,0.04